Time;durP1;ratioP1;P1;durP2;ratioP2;P2;SDS_P1;SDS_P2;PMS_P1;PMS_P2;Temp;Humidity;BMP_temperature;BMP_pressure;BME280_temperature;BME280_humidity;BME280_pressure;Samples;Min_cycle;Max_cycle;Signal;HPM_P1;HPM_P2
2023/01/09 00:00:20;;;;;;;1.73;0.80;;;;;;;18.05;100.00;99194.28;5113197;28;20040;-54
2023/01/09 00:02:46;;;;;;;2.63;1.42;;;;;;;18.29;100.00;99193.50;5110535;28;20336;-56
2023/01/09 00:05:13;;;;;;;3.13;1.60;;;;;;;18.67;100.00;99201.72;5113158;28;20062;-56
2023/01/09 00:07:39;;;;;;;4.90;1.13;;;;;;;19.03;94.89;99201.28;5110463;28;20293;-54
2023/01/09 00:10:06;;;;;;;1.40;1.00;;;;;;;18.21;100.00;99203.06;5109524;28;20040;-55
2023/01/09 00:12:31;;;;;;;2.80;1.20;;;;;;;19.38;95.75;99205.69;5107372;28;20036;-58
2023/01/09 00:14:56;;;;;;;2.97;1.00;;;;;;;19.40;94.46;99208.91;5111775;28;20058;-56
2023/01/09 00:17:22;;;;;;;2.80;1.03;;;;;;;19.41;92.21;99213.22;5107017;28;20039;-56
2023/01/09 00:19:47;;;;;;;3.00;1.03;;;;;;;21.29;82.90;99209.47;5110970;28;20333;-53
2023/01/09 00:22:13;;;;;;;1.37;1.00;;;;;;;20.43;82.49;99209.06;5093907;28;20039;-53
2023/01/09 00:24:38;;;;;;;3.60;1.33;;;;;;;19.90;82.67;99214.59;5111728;28;20126;-56
2023/01/09 00:27:04;;;;;;;2.63;1.30;;;;;;;20.81;80.70;99206.16;5112352;28;20342;-56
2023/01/09 00:29:31;;;;;;;3.95;1.40;;;;;;;20.96;77.03;99207.72;5110559;28;20038;-55
2023/01/09 00:31:56;;;;;;;3.03;1.23;;;;;;;19.22;80.24;99210.50;5108742;28;20025;-55
2023/01/09 00:34:23;;;;;;;2.40;1.43;;;;;;;16.69;100.00;99200.81;5111216;28;20043;-54
2023/01/09 00:36:53;;;;;;;6.93;1.38;;;;;;;18.62;92.16;99207.19;5110504;28;20020;-55
2023/01/09 00:39:21;;;;;;;7.30;1.58;;;;;;;18.01;98.60;99202.16;5112354;28;20096;-55
2023/01/09 00:41:50;;;;;;;5.28;2.95;;;;;;;18.38;95.48;99209.91;5112043;28;20040;-51
2023/01/09 00:44:24;;;;;;;10.88;4.07;;;;;;;16.05;100.00;99204.78;5107850;28;20032;-57
2023/01/09 00:46:55;;;;;;;14.95;7.32;;;;;;;16.26;100.00;99202.06;5111170;28;20027;-54
2023/01/09 00:49:21;;;;;;;24.45;9.48;;;;;;;15.72;100.00;99200.75;5109711;28;20107;-54
2023/01/09 00:51:47;;;;;;;28.38;9.70;;;;;;;15.23;100.00;99199.34;5113904;28;20035;-53
2023/01/09 00:54:16;;;;;;;18.52;9.05;;;;;;;14.95;100.00;99210.31;5110369;28;20104;-56
2023/01/09 00:56:42;;;;;;;22.65;8.80;;;;;;;15.75;100.00;99211.78;5110931;28;20087;-52
2023/01/09 00:59:08;;;;;;;17.23;9.02;;;;;;;14.66;100.00;99207.25;5114586;28;20035;-55
2023/01/09 01:01:34;;;;;;;19.73;10.07;;;;;;;16.14;100.00;99213.13;5111093;28;20052;-53
2023/01/09 01:07:37;;;;;;;12.48;6.25;;;;;;;14.34;100.00;99206.28;5116128;28;20056;-54
2023/01/09 01:07:49;;;;;;;13.65;5.32;;;;;;;16.15;100.00;99208.53;5109374;28;20032;-56
2023/01/09 01:09:44;;;;;;;7.90;4.95;;;;;;;16.36;100.00;99220.09;5112693;28;20039;-55
2023/01/09 01:12:09;;;;;;;13.13;5.87;;;;;;;16.17;100.00;99204.50;5112639;28;20110;-54
2023/01/09 01:14:36;;;;;;;15.07;6.47;;;;;;;16.13;100.00;99205.31;5114625;28;20024;-53
2023/01/09 01:17:03;;;;;;;12.82;5.68;;;;;;;16.89;100.00;99206.13;5106958;28;20062;-53
2023/01/09 01:19:29;;;;;;;10.50;5.78;;;;;;;17.12;100.00;99208.50;5098229;28;20019;-50
2023/01/09 01:21:55;;;;;;;9.00;4.93;;;;;;;16.77;100.00;99219.97;5110762;28;20042;-54
2023/01/09 01:24:20;;;;;;;7.97;4.10;;;;;;;16.00;100.00;99220.16;5111487;28;20031;-51
2023/01/09 01:26:46;;;;;;;12.63;4.40;;;;;;;17.84;100.00;99213.38;5114088;28;20264;-52
2023/01/09 01:29:12;;;;;;;11.30;5.65;;;;;;;17.84;100.00;99217.97;5113597;28;20035;-54
2023/01/09 01:31:38;;;;;;;26.50;10.75;;;;;;;18.20;94.99;99220.38;5110866;28;20069;-50
2023/01/09 01:34:03;;;;;;;22.33;10.97;;;;;;;19.17;90.87;99224.97;5111457;28;20095;-50
2023/01/09 01:36:29;;;;;;;18.00;8.00;;;;;;;19.41;88.41;99240.34;5113825;28;20033;-52
2023/01/09 01:38:54;;;;;;;20.55;8.43;;;;;;;20.19;83.76;99239.91;5119076;28;20311;-49
2023/01/09 01:41:28;;;;;;;14.80;6.47;;;;;;;19.87;82.33;99231.47;5109594;28;20084;-54
2023/01/09 01:44:04;;;;;;;11.90;5.07;;;;;;;19.04;85.68;99237.31;5113643;28;20032;-55
2023/01/09 01:46:31;;;;;;;10.75;4.50;;;;;;;18.98;84.95;99231.16;5109105;28;20040;-55
2023/01/09 01:49:12;;;;;;;10.45;3.60;;;;;;;19.33;85.06;99231.75;5116328;28;20032;-55
2023/01/09 01:51:43;;;;;;;14.25;4.13;;;;;;;20.25;77.93;99235.19;5112646;28;20036;-56
2023/01/09 01:54:14;;;;;;;7.15;3.72;;;;;;;18.43;85.53;99236.91;5118104;28;20061;-54
2023/01/09 01:56:55;;;;;;;14.90;4.65;;;;;;;17.08;94.64;99240.63;5109151;28;20035;-53
2023/01/09 01:59:31;;;;;;;10.30;4.00;;;;;;;18.27;90.53;99245.19;5112581;28;20046;-53
2023/01/09 02:02:00;;;;;;;9.60;4.78;;;;;;;17.94;91.45;99244.13;5107362;28;20066;-53
2023/01/09 02:04:28;;;;;;;17.75;5.70;;;;;;;17.99;91.64;99241.34;5111507;28;20058;-53
2023/01/09 02:06:55;;;;;;;10.38;4.88;;;;;;;17.72;98.04;99239.97;5116047;28;20110;-50
2023/01/09 02:09:24;;;;;;;12.27;6.15;;;;;;;17.51;95.76;99242.00;5120210;28;20042;-54
2023/01/09 02:11:52;;;;;;;13.07;4.93;;;;;;;18.35;93.24;99243.75;5119200;28;20029;-52
2023/01/09 02:14:22;;;;;;;9.57;4.45;;;;;;;17.68;97.31;99236.22;5121672;28;20038;-54
2023/01/09 02:17:13;;;;;;;7.30;3.92;;;;;;;16.96;100.00;99242.84;5118850;28;20042;-55
2023/01/09 02:20:00;;;;;;;15.32;5.07;;;;;;;16.84;98.96;99253.94;5116439;28;20040;-54
2023/01/09 02:22:42;;;;;;;17.48;5.93;;;;;;;17.86;95.61;99249.03;5119237;28;20033;-53
2023/01/09 02:25:32;;;;;;;18.75;7.82;;;;;;;17.62;94.05;99241.66;5114762;28;20092;-52
2023/01/09 02:28:19;;;;;;;16.95;6.90;;;;;;;17.10;98.19;99259.28;5117518;28;20054;-56
2023/01/09 02:30:50;;;;;;;11.85;5.32;;;;;;;15.08;100.00;99245.91;5120859;28;20039;-56
2023/01/09 02:33:25;;;;;;;11.52;5.25;;;;;;;15.42;100.00;99245.44;5123186;28;20099;-52
2023/01/09 02:36:11;;;;;;;17.77;5.43;;;;;;;15.89;100.00;99249.81;5122309;28;20051;-50
2023/01/09 02:38:58;;;;;;;9.75;4.78;;;;;;;15.90;100.00;99231.75;5117540;28;20038;-53
2023/01/09 02:41:31;;;;;;;;;;;;;;;15.38;100.00;99239.78;5121198;28;20040;-54
2023/01/09 02:44:10;;;;;;;9.90;3.70;;;;;;;16.05;100.00;99236.34;5125067;28;19917;-52
2023/01/09 02:46:36;;;;;;;8.20;4.03;;;;;;;15.37;100.00;99245.44;5118522;28;20040;-51
2023/01/09 02:49:01;;;;;;;17.77;4.30;;;;;;;15.00;100.00;99239.13;5120577;28;20118;-53
2023/01/09 02:51:49;;;;;;;13.83;4.70;;;;;;;14.29;100.00;99244.69;5119888;28;20055;-52
2023/01/09 02:54:24;;;;;;;15.60;4.20;;;;;;;15.67;100.00;99241.16;5118843;28;20028;-50
2023/01/09 02:57:12;;;;;;;12.13;4.22;;;;;;;15.60;100.00;99236.84;5114666;28;20039;-53
2023/01/09 02:59:58;;;;;;;;;;;;;;;15.93;100.00;99239.31;5116270;28;20066;-50
2023/01/09 03:02:49;;;;;;;14.70;5.13;;;;;;;15.69;100.00;99250.59;5114560;28;19916;-49
2023/01/09 03:05:39;;;;;;;17.85;4.95;;;;;;;16.37;100.00;99237.09;5117692;28;20042;-51
2023/01/09 03:08:30;;;;;;;19.35;6.55;;;;;;;15.96;100.00;99241.47;5116371;28;20039;-52
2023/01/09 03:11:03;;;;;;;11.50;5.35;;;;;;;15.82;100.00;99245.75;5122365;28;20032;-52
2023/01/09 03:13:33;;;;;;;14.57;5.57;;;;;;;16.74;100.00;99247.50;5121526;28;20035;-53
2023/01/09 03:16:04;;;;;;;11.18;5.53;;;;;;;16.20;100.00;99238.19;5115168;28;20062;-52
2023/01/09 03:18:32;;;;;;;9.20;3.83;;;;;;;16.90;100.00;99234.75;5120748;28;20028;-56
2023/01/09 03:20:57;;;;;;;15.82;5.20;;;;;;;14.31;100.00;99228.31;5119918;28;20069;-54
2023/01/09 03:23:23;;;;;;;11.25;5.30;;;;;;;14.92;100.00;99237.75;5116251;28;20028;-52
2023/01/09 03:25:49;;;;;;;19.90;5.83;;;;;;;14.95;100.00;99223.78;5120955;28;20028;-53
2023/01/09 03:28:26;;;;;;;10.87;4.50;;;;;;;15.98;100.00;99225.81;5118168;28;20100;-49
2023/01/09 03:30:51;;;;;;;;;;;;;;;15.88;100.00;99240.09;5116990;28;20036;-50
2023/01/09 03:33:17;;;;;;;11.13;4.57;;;;;;;15.33;100.00;99220.91;5115383;28;19912;-50
2023/01/09 03:35:43;;;;;;;16.93;4.80;;;;;;;16.19;100.00;99226.63;5120236;28;20067;-52
2023/01/09 03:38:09;;;;;;;15.25;4.15;;;;;;;15.91;100.00;99220.72;5117369;28;20289;-49
2023/01/09 03:40:35;;;;;;;11.25;2.97;;;;;;;17.33;98.91;99228.91;5126240;28;20032;-52
2023/01/09 03:43:01;;;;;;;8.40;2.72;;;;;;;17.04;96.98;99226.88;5124779;28;20032;-50
2023/01/09 03:45:26;;;;;;;5.67;2.97;;;;;;;16.24;100.00;99222.28;5126745;28;20042;-54
2023/01/09 03:47:52;;;;;;;12.85;2.83;;;;;;;17.44;93.99;99242.31;5118829;28;20032;-53
2023/01/09 03:50:18;;;;;;;10.90;3.35;;;;;;;17.69;92.24;99229.72;5121653;28;20039;-51
2023/01/09 03:52:44;;;;;;;11.17;2.50;;;;;;;16.58;98.56;99229.75;5123947;28;20023;-49
2023/01/09 03:55:09;;;;;;;12.50;2.57;;;;;;;16.66;100.00;99239.16;5125330;28;20267;-51
2023/01/09 03:57:35;;;;;;;8.37;2.97;;;;;;;16.35;100.00;99229.25;5126199;28;20060;-50
2023/01/09 04:00:00;;;;;;;6.33;2.17;;;;;;;14.76;100.00;99244.97;5117495;28;20268;-51
2023/01/09 04:02:26;;;;;;;14.90;2.37;;;;;;;14.98;100.00;99244.78;5124089;28;20036;-51
2023/01/09 04:04:51;;;;;;;10.83;2.70;;;;;;;15.46;100.00;99230.38;5120696;28;20082;-51
2023/01/09 04:07:17;;;;;;;8.88;2.65;;;;;;;15.57;100.00;99232.00;5125184;28;20028;-53
2023/01/09 04:09:42;;;;;;;4.57;2.07;;;;;;;15.71;100.00;99231.47;5125431;28;20050;-56
2023/01/09 04:12:07;;;;;;;5.43;2.23;;;;;;;15.91;100.00;99223.41;5128063;28;20054;-50
2023/01/09 04:14:33;;;;;;;4.83;2.27;;;;;;;16.25;100.00;99229.28;5124501;28;20027;-49
2023/01/09 04:16:58;;;;;;;10.77;2.33;;;;;;;15.32;100.00;99238.13;5124871;28;20032;-53
2023/01/09 04:19:24;;;;;;;11.18;2.70;;;;;;;15.98;100.00;99242.00;5125189;28;20028;-51
2023/01/09 04:21:49;;;;;;;8.13;2.50;;;;;;;15.67;100.00;99241.16;5093037;28;20061;-53
2023/01/09 04:24:15;;;;;;;6.53;2.40;;;;;;;15.66;100.00;99240.34;5121172;28;20273;-53
2023/01/09 04:26:40;;;;;;;10.83;4.33;;;;;;;15.78;100.00;99232.00;5126716;28;20043;-50
2023/01/09 04:29:06;;;;;;;15.80;3.33;;;;;;;16.47;100.00;99242.44;5120796;28;20052;-51
2023/01/09 04:31:31;;;;;;;7.22;2.28;;;;;;;16.58;100.00;99243.22;5123603;28;20074;-54
2023/01/09 04:33:57;;;;;;;5.67;2.40;;;;;;;16.23;98.48;99240.34;5122877;28;20046;-52
2023/01/09 04:36:22;;;;;;;10.77;3.80;;;;;;;14.57;100.00;99252.66;5127613;28;20335;-53
2023/01/09 04:38:48;;;;;;;8.83;2.37;;;;;;;16.27;100.00;99249.53;5124300;28;20024;-53
2023/01/09 04:41:47;;;;;;;13.95;3.55;;;;;;;15.05;100.00;99242.66;5125551;28;20131;-54
2023/01/09 04:43:59;;;;;;;8.68;2.88;;;;;;;15.74;100.00;99231.72;5120555;28;20046;-53
2023/01/09 04:46:24;;;;;;;8.48;2.85;;;;;;;16.10;100.00;99238.22;5122154;28;20060;-51
2023/01/09 04:48:50;;;;;;;12.40;2.93;;;;;;;15.08;100.00;99246.69;5120677;28;20024;-51
2023/01/09 04:51:15;;;;;;;6.80;2.60;;;;;;;15.28;100.00;99235.19;5116644;28;20299;-52
2023/01/09 04:53:40;;;;;;;5.50;2.30;;;;;;;15.05;100.00;99248.03;5121941;28;20137;-50
2023/01/09 04:56:06;;;;;;;7.73;2.07;;;;;;;15.50;100.00;99244.91;5122948;28;20049;-52
2023/01/09 04:58:32;;;;;;;11.77;2.40;;;;;;;16.04;100.00;99242.81;5121723;28;20048;-53
2023/01/09 05:00:57;;;;;;;12.23;2.27;;;;;;;16.14;100.00;99242.00;5116879;28;20048;-53
2023/01/09 05:03:23;;;;;;;17.60;3.63;;;;;;;14.67;100.00;99236.56;5122660;28;20276;-52
2023/01/09 05:05:49;;;;;;;7.07;2.10;;;;;;;15.30;100.00;99230.34;5120038;28;20064;-54
2023/01/09 05:08:14;;;;;;;8.53;2.23;;;;;;;15.71;100.00;99226.09;5122474;28;20023;-52
2023/01/09 05:10:39;;;;;;;12.57;2.80;;;;;;;15.39;100.00;99224.41;5124644;28;20298;-54
2023/01/09 05:13:05;;;;;;;14.70;2.23;;;;;;;16.25;100.00;99222.00;5125743;28;20065;-52
2023/01/09 05:15:30;;;;;;;5.67;2.10;;;;;;;16.28;100.00;99218.78;5120663;28;20028;-50
2023/01/09 05:17:55;;;;;;;8.93;2.30;;;;;;;15.42;100.00;99218.50;5125854;28;20063;-51
2023/01/09 05:20:21;;;;;;;8.07;2.47;;;;;;;16.26;100.00;99215.56;5122211;28;20039;-53
2023/01/09 05:22:46;;;;;;;11.23;2.47;;;;;;;15.44;100.00;99216.34;5123416;28;20028;-54
2023/01/09 05:25:12;;;;;;;8.27;2.20;;;;;;;15.60;100.00;99204.50;5122563;28;20303;-52
2023/01/09 05:27:37;;;;;;;12.83;2.57;;;;;;;15.95;100.00;99212.88;5122210;28;20036;-50
2023/01/09 05:30:03;;;;;;;12.63;2.58;;;;;;;15.66;100.00;99218.78;5119444;28;20039;-50
2023/01/09 05:32:29;;;;;;;7.53;2.22;;;;;;;14.99;100.00;99232.13;5126681;28;20056;-50
2023/01/09 05:34:55;;;;;;;6.57;1.70;;;;;;;15.46;100.00;99217.69;5119969;28;20052;-53
2023/01/09 05:37:20;;;;;;;12.23;3.43;;;;;;;16.11;100.00;99218.25;5122375;28;20331;-55
2023/01/09 05:39:46;;;;;;;10.80;2.20;;;;;;;15.61;100.00;99221.50;5116225;28;20031;-51
2023/01/09 05:42:11;;;;;;;9.70;2.53;;;;;;;14.97;100.00;99212.75;5124518;28;20055;-51
2023/01/09 05:44:36;;;;;;;9.60;2.73;;;;;;;16.07;100.00;99209.91;5116015;28;20043;-55
2023/01/09 05:47:02;;;;;;;6.25;2.22;;;;;;;15.88;100.00;99210.44;5121954;28;20051;-51
2023/01/09 05:49:28;;;;;;;12.17;2.17;;;;;;;14.89;100.00;99206.81;5121953;28;20047;-52
2023/01/09 05:51:53;;;;;;;7.23;2.70;;;;;;;15.58;100.00;99212.06;5119565;28;20287;-52
2023/01/09 05:54:19;;;;;;;15.97;2.53;;;;;;;16.31;100.00;99207.44;5123622;28;20032;-52
2023/01/09 05:56:44;;;;;;;10.17;2.90;;;;;;;16.13;100.00;99208.81;5120406;28;20264;-53
2023/01/09 05:59:10;;;;;;;7.60;2.77;;;;;;;15.45;100.00;99217.94;5117920;28;20108;-52
2023/01/09 06:01:35;;;;;;;10.43;2.10;;;;;;;15.94;100.00;99202.38;5118255;28;20036;-48
2023/01/09 06:04:01;;;;;;;8.77;1.73;;;;;;;16.01;100.00;99219.09;5118824;28;20055;-51
2023/01/09 06:06:26;;;;;;;9.18;2.63;;;;;;;16.20;100.00;99201.25;5116701;28;20036;-53
2023/01/09 06:08:52;;;;;;;8.63;2.90;;;;;;;16.63;100.00;99202.75;5116310;28;20040;-51
2023/01/09 06:11:17;;;;;;;14.63;2.77;;;;;;;16.24;100.00;99204.19;5123306;28;20323;-49
2023/01/09 06:13:43;;;;;;;7.60;2.63;;;;;;;17.08;100.00;99200.13;5119765;28;20028;-50
2023/01/09 06:16:08;;;;;;;7.20;2.00;;;;;;;15.99;100.00;99187.00;5121865;28;20065;-50
2023/01/09 06:18:34;;;;;;;13.43;2.70;;;;;;;15.89;100.00;99185.13;5118696;28;20047;-50
2023/01/09 06:20:59;;;;;;;11.90;2.80;;;;;;;16.15;100.00;99187.78;5120800;28;20115;-49
2023/01/09 06:23:25;;;;;;;8.07;2.40;;;;;;;15.57;100.00;99183.50;5118254;28;20071;-49
2023/01/09 06:25:50;;;;;;;6.10;2.03;;;;;;;16.17;100.00;99187.50;5118730;28;20345;-52
2023/01/09 06:28:16;;;;;;;19.13;3.88;;;;;;;16.28;100.00;99181.03;5117186;28;20051;-51
2023/01/09 06:30:41;;;;;;;9.77;2.27;;;;;;;16.31;100.00;99180.47;5117932;28;20036;-52
2023/01/09 06:33:07;;;;;;;9.47;2.70;;;;;;;16.49;100.00;99187.16;5114215;28;20269;-52
2023/01/09 06:35:32;;;;;;;16.43;2.10;;;;;;;15.90;100.00;99189.44;5117972;28;20052;-50
2023/01/09 06:38:00;;;;;;;8.98;2.20;;;;;;;16.81;100.00;99197.81;5113455;28;20521;-50
2023/01/09 06:40:25;;;;;;;10.55;2.53;;;;;;;16.89;100.00;99194.53;5114527;28;20035;-52
2023/01/09 06:42:51;;;;;;;10.68;1.98;;;;;;;16.14;100.00;99185.34;5118333;28;20100;-51
2023/01/09 06:45:16;;;;;;;8.87;2.77;;;;;;;16.68;100.00;99183.84;5121263;28;20028;-46
2023/01/09 06:47:42;;;;;;;11.50;2.50;;;;;;;16.77;100.00;99187.56;5113844;28;20040;-52
2023/01/09 06:50:08;;;;;;;29.92;3.22;;;;;;;16.12;100.00;99193.72;5122563;28;20036;-53
2023/01/09 06:52:35;;;;;;;16.08;2.35;;;;;;;16.68;100.00;99193.81;5117104;28;20031;-54
2023/01/09 06:55:01;;;;;;;10.85;2.53;;;;;;;16.72;100.00;99195.69;5122268;28;20065;-54
2023/01/09 06:57:26;;;;;;;11.93;4.07;;;;;;;15.86;100.00;99198.31;5114076;28;20031;-57
2023/01/09 06:59:52;;;;;;;7.13;2.23;;;;;;;15.68;100.00;99191.56;5117509;28;20088;-56
2023/01/09 07:02:20;;;;;;;11.77;2.30;;;;;;;16.88;100.00;99196.41;5095525;28;20302;-58
2023/01/09 07:04:45;;;;;;;8.70;2.15;;;;;;;16.04;100.00;99205.06;5122871;28;20036;-57
2023/01/09 07:07:11;;;;;;;17.60;2.83;;;;;;;15.68;100.00;99205.84;5123223;28;20032;-58
2023/01/09 07:09:36;;;;;;;11.95;2.75;;;;;;;16.00;100.00;99198.59;5122947;28;20107;-58
2023/01/09 07:12:02;;;;;;;12.83;2.60;;;;;;;16.22;100.00;99197.47;5115418;28;20036;-58
2023/01/09 07:14:27;;;;;;;11.20;4.13;;;;;;;16.47;100.00;99196.59;5121503;28;20052;-59
2023/01/09 07:16:53;;;;;;;16.80;4.38;;;;;;;15.99;100.00;99194.28;5123792;28;20089;-58
2023/01/09 07:19:18;;;;;;;8.35;2.80;;;;;;;15.51;100.00;99197.22;5123452;28;20047;-57
2023/01/09 07:21:44;;;;;;;9.87;3.80;;;;;;;15.28;100.00;99197.47;5109421;28;20040;-55
2023/01/09 07:24:09;;;;;;;13.17;3.40;;;;;;;15.66;100.00;99217.97;5121079;28;20107;-56
2023/01/09 07:26:34;;;;;;;28.43;4.77;;;;;;;15.29;100.00;99207.19;5123403;28;20104;-54
2023/01/09 07:29:00;;;;;;;16.90;5.95;;;;;;;15.62;100.00;99196.97;5120942;28;20081;-58
2023/01/09 07:31:26;;;;;;;12.70;6.30;;;;;;;15.43;100.00;99225.50;5127361;28;20032;-59
2023/01/09 07:33:51;;;;;;;15.03;5.37;;;;;;;16.68;100.00;99205.44;5121302;28;20027;-57
2023/01/09 07:36:17;;;;;;;10.30;3.53;;;;;;;16.62;100.00;99239.72;5121141;28;20277;-57
2023/01/09 07:38:42;;;;;;;14.00;4.07;;;;;;;16.30;100.00;99221.19;5120312;28;20039;-59
2023/01/09 07:41:08;;;;;;;21.97;4.40;;;;;;;16.05;100.00;99231.75;5105916;28;20059;-56
2023/01/09 07:43:33;;;;;;;15.52;4.55;;;;;;;16.21;100.00;99234.41;5121738;28;20035;-53
2023/01/09 07:45:59;;;;;;;11.00;3.83;;;;;;;16.87;100.00;99234.50;5110360;28;20028;-57
2023/01/09 07:48:24;;;;;;;15.80;3.73;;;;;;;16.47;100.00;99243.28;5112572;28;20047;-57
2023/01/09 07:50:50;;;;;;;13.83;3.30;;;;;;;15.55;100.00;99253.00;5111681;28;20277;-58
2023/01/09 07:53:15;;;;;;;23.17;3.87;;;;;;;16.37;100.00;99277.56;5114858;28;20166;-58
2023/01/09 07:55:43;;;;;;;15.20;4.40;;;;;;;15.67;100.00;99279.69;5094956;28;20036;-58
2023/01/09 07:58:09;;;;;;;39.25;6.32;;;;;;;15.86;100.00;99279.97;5115250;28;20032;-59
2023/01/09 08:00:34;;;;;;;14.63;3.90;;;;;;;14.96;100.00;99316.13;5116169;28;20130;-58
2023/01/09 08:02:59;;;;;;;8.73;2.40;;;;;;;15.14;100.00;99314.84;5120059;28;20091;-59
2023/01/09 08:05:25;;;;;;;18.93;6.97;;;;;;;19.57;100.00;99331.16;5114876;28;20040;-57
2023/01/09 08:07:51;;;;;;;18.55;5.57;;;;;;;21.19;85.48;99300.19;5115538;28;20028;-59
2023/01/09 08:10:18;;;;;;;20.87;4.27;;;;;;;20.77;83.23;99303.72;5114585;28;20073;-58
2023/01/09 08:12:47;;;;;;;11.55;4.72;;;;;;;21.26;72.03;99308.75;5113825;28;20314;-57
2023/01/09 08:15:14;;;;;;;36.95;6.82;;;;;;;19.14;100.00;99326.59;5115359;28;20075;-59
2023/01/09 08:17:41;;;;;;;22.25;5.85;;;;;;;19.24;100.00;99312.09;5111597;28;20032;-59
2023/01/09 08:20:07;;;;;;;29.00;6.32;;;;;;;19.90;100.00;99309.53;5115248;28;20043;-56
2023/01/09 08:22:33;;;;;;;16.33;5.00;;;;;;;19.02;100.00;99310.75;5113201;28;20042;-57
2023/01/09 08:24:58;;;;;;;25.42;6.15;;;;;;;19.82;100.00;99304.78;5117446;28;20039;-60
2023/01/09 08:27:24;;;;;;;23.47;6.23;;;;;;;20.29;98.42;99315.72;5112676;28;20032;-59
2023/01/09 08:29:49;;;;;;;11.82;4.30;;;;;;;21.33;83.83;99319.19;5118427;28;20123;-58
2023/01/09 08:32:15;;;;;;;14.80;5.60;;;;;;;21.46;86.88;99317.59;5112885;28;20040;-58
2023/01/09 08:34:40;;;;;;;17.35;5.70;;;;;;;20.00;97.71;99326.78;5115809;28;20131;-58
2023/01/09 08:37:06;;;;;;;9.97;4.80;;;;;;;18.85;98.28;99332.03;5116017;28;20051;-55
2023/01/09 08:39:31;;;;;;;16.60;5.17;;;;;;;17.49;100.00;99332.28;5114937;28;20105;-59
2023/01/09 08:47:27;;;;;;;10.32;4.18;;;;;;;19.53;100.00;99343.69;5113885;28;20056;-59
2023/01/09 08:49:53;;;;;;;13.00;4.07;;;;;;;19.92;94.41;99358.91;5115361;28;20056;-57
2023/01/09 08:52:19;;;;;;;18.48;5.25;;;;;;;19.47;100.00;99347.59;5117727;28;20048;-58
2023/01/09 08:54:44;;;;;;;15.53;5.30;;;;;;;18.90;100.00;99359.88;5115828;28;20063;-56
2023/01/09 08:57:09;;;;;;;11.97;4.83;;;;;;;19.59;100.00;99364.22;5117246;28;20040;-54
2023/01/09 08:59:35;;;;;;;22.20;7.45;;;;;;;20.52;98.65;99380.22;5119828;28;20024;-56
2023/01/09 09:02:01;;;;;;;34.25;6.45;;;;;;;18.61;100.00;99379.66;5115115;28;20035;-59
2023/01/09 09:04:27;;;;;;;18.63;5.23;;;;;;;18.38;100.00;99366.88;5113927;28;20070;-57
2023/01/09 09:06:52;;;;;;;12.23;3.65;;;;;;;16.81;100.00;99362.47;5115453;28;20039;-58
2023/01/09 09:09:18;;;;;;;24.70;5.00;;;;;;;17.33;100.00;99366.69;5112282;28;20036;-57
2023/01/09 09:11:43;;;;;;;23.33;5.50;;;;;;;17.91;100.00;99386.91;5114531;28;20024;-57
2023/01/09 09:16:53;;;;;;;16.77;4.60;;;;;;;18.10;100.00;99396.28;5117604;28;20039;-60
2023/01/09 09:19:19;;;;;;;10.60;4.10;;;;;;;17.42;100.00;99404.75;5115841;28;20044;-59
2023/01/09 09:21:45;;;;;;;14.68;5.45;;;;;;;18.23;100.00;99419.22;5093607;28;20043;-57
2023/01/09 09:24:10;;;;;;;12.90;4.67;;;;;;;18.45;100.00;99422.31;5113161;28;20024;-59
2023/01/09 09:26:35;;;;;;;11.67;3.43;;;;;;;19.11;100.00;99416.56;5116261;28;20035;-58
2023/01/09 09:29:01;;;;;;;14.13;3.50;;;;;;;19.14;100.00;99426.84;5103038;28;20134;-58
2023/01/09 09:31:28;;;;;;;16.45;4.15;;;;;;;17.44;100.00;99428.78;5120189;28;20031;-59
2023/01/09 09:33:53;;;;;;;23.43;4.10;;;;;;;19.35;100.00;99430.13;5101039;28;20131;-59
2023/01/09 09:36:20;;;;;;;12.15;3.83;;;;;;;18.95;100.00;99437.56;5113005;28;20028;-59
2023/01/09 09:38:45;;;;;;;16.80;5.32;;;;;;;18.88;100.00;99439.78;5120231;28;20098;-58
2023/01/09 09:47:28;;;;;;;13.57;5.43;;;;;;;22.54;100.00;99455.06;5111191;28;20040;-59
2023/01/09 09:50:09;;;;;;;12.40;5.63;;;;;;;22.58;71.43;99473.22;5113780;28;20039;-56
2023/01/09 09:52:50;;;;;;;13.95;5.43;;;;;;;23.88;59.45;99486.97;5114598;28;20068;-58
2023/01/09 09:55:23;;;;;;;13.93;5.00;;;;;;;24.92;58.57;99500.19;5111536;28;20040;-59
2023/01/09 09:57:50;;;;;;;19.48;6.35;;;;;;;20.49;72.76;99501.91;5115750;28;20077;-58
2023/01/09 10:00:19;;;;;;;18.20;5.00;;;;;;;24.20;61.92;99509.50;5112915;28;20041;-57
2023/01/09 10:03:05;;;;;;;18.17;5.78;;;;;;;20.67;68.20;99518.47;5111515;28;20044;-57
2023/01/09 10:05:37;;;;;;;11.15;3.55;;;;;;;20.73;69.59;99528.16;5117441;28;20070;-59
2023/01/09 10:08:12;;;;;;;22.52;4.50;;;;;;;21.79;67.18;99529.63;5115399;28;20055;-59
2023/01/09 10:10:51;;;;;;;21.02;5.32;;;;;;;22.09;60.03;99538.25;5095435;28;20038;-60
2023/01/09 10:16:08;;;;;;;8.70;3.17;;;;;;;20.30;73.63;99542.63;5108888;28;20031;-58
2023/01/09 10:19:10;;;;;;;12.40;3.80;;;;;;;20.92;71.32;99543.66;5109406;28;20032;-57
2023/01/09 10:21:51;;;;;;;17.58;4.35;;;;;;;19.37;83.03;99546.41;5111338;28;20067;-59
2023/01/09 10:24:30;;;;;;;13.85;3.92;;;;;;;19.60;86.53;99539.38;5111619;28;20044;-56
2023/01/09 10:27:01;;;;;;;15.48;3.88;;;;;;;20.11;77.60;99553.47;5111544;28;20044;-56
2023/01/09 10:29:57;;;;;;;19.88;3.95;;;;;;;19.66;84.11;99561.81;5109324;28;20031;-58
2023/01/09 10:32:44;;;;;;;9.07;3.42;;;;;;;19.94;82.33;99556.66;5112260;28;20035;-57
2023/01/09 10:35:35;;;;;;;9.93;3.78;;;;;;;19.99;80.57;99569.34;5114083;28;20055;-57
2023/01/09 10:38:05;;;;;;;17.25;5.38;;;;;;;18.31;91.64;99556.63;5114356;28;20047;-58
2023/01/09 10:40:40;;;;;;;16.55;4.88;;;;;;;18.17;97.29;99568.03;5114852;28;20024;-56
2023/01/09 10:43:15;;;;;;;11.60;4.20;;;;;;;18.91;87.18;99580.06;5093073;28;20373;-55
2023/01/09 10:45:51;;;;;;;14.10;4.20;;;;;;;18.19;92.55;99565.88;5112603;28;20027;-55
2023/01/09 10:48:36;;;;;;;15.55;4.13;;;;;;;17.83;96.87;99579.50;5116726;28;20035;-56
2023/01/09 10:51:21;;;;;;;14.75;3.63;;;;;;;18.52;94.22;99578.16;5124822;28;20034;-53
2023/01/09 10:53:54;;;;;;;9.75;3.35;;;;;;;18.31;91.93;99579.06;5115775;28;20036;-55
2023/01/09 10:56:31;;;;;;;10.48;3.17;;;;;;;19.06;89.22;99582.69;5111541;28;20024;-57
2023/01/09 10:58:57;;;;;;;5.03;2.10;;;;;;;18.20;90.20;99604.56;5114603;28;20065;-56
2023/01/09 11:01:29;;;;;;;8.90;2.93;;;;;;;19.40;79.43;99602.75;5118309;28;20032;-57
2023/01/09 11:03:57;;;;;;;17.67;4.18;;;;;;;18.89;87.26;99595.78;5118820;28;20261;-56
2023/01/09 11:06:28;;;;;;;10.68;3.80;;;;;;;18.76;86.17;99600.75;5113305;28;20050;-54
2023/01/09 11:08:57;;;;;;;17.85;5.07;;;;;;;19.34;90.48;99614.72;5115495;28;20066;-55
2023/01/09 11:11:37;;;;;;;20.30;5.78;;;;;;;18.36;96.54;99601.81;5118065;28;20062;-55
2023/01/09 11:14:30;;;;;;;13.70;4.78;;;;;;;18.29;98.32;99602.09;5117535;28;20455;-56
2023/01/09 11:17:04;;;;;;;21.02;4.32;;;;;;;18.69;97.05;99610.28;5115757;28;20038;-56
2023/01/09 11:19:32;;;;;;;13.60;4.55;;;;;;;18.02;100.00;99630.34;5114050;28;20024;-58
2023/01/09 11:22:13;;;;;;;12.77;3.88;;;;;;;19.24;98.61;99631.06;5114593;28;20064;-59
2023/01/09 11:24:38;;;;;;;13.55;3.80;;;;;;;19.53;99.49;99639.22;5113253;28;20036;-58
2023/01/09 11:27:12;;;;;;;13.37;3.80;;;;;;;19.55;100.00;99626.19;5117656;28;20116;-57
2023/01/09 11:29:42;;;;;;;15.65;4.03;;;;;;;19.13;100.00;99630.34;5116163;28;20064;-55
2023/01/09 11:32:22;;;;;;;13.40;3.17;;;;;;;19.32;100.00;99636.69;5121744;28;20028;-56
2023/01/09 11:34:48;;;;;;;6.18;2.88;;;;;;;20.59;90.89;99642.16;5111190;28;20128;-56
2023/01/09 11:37:24;;;;;;;10.75;3.47;;;;;;;18.81;99.66;99634.31;5110632;28;20039;-56
2023/01/09 11:39:50;;;;;;;12.27;3.92;;;;;;;20.55;95.19;99637.63;5119182;28;20123;-55
2023/01/09 11:45:25;;;;;;;13.70;4.40;;;;;;;21.09;84.08;99640.94;5112178;28;20035;-56
2023/01/09 11:47:50;;;;;;;15.53;4.67;;;;;;;20.52;87.26;99647.16;5112283;28;20280;-55
2023/01/09 11:50:24;;;;;;;14.37;4.97;;;;;;;20.04;88.96;99656.13;5115748;28;20297;-54